sensor_id;sensor_type;location;lat;lon;timestamp;temperature;humidity
38333;DHT22;25748;46.670;14.272;2023-12-20T00:01:33;0.10;66.00
38333;DHT22;25748;46.670;14.272;2023-12-20T00:03:58;0.20;66.10
38333;DHT22;25748;46.670;14.272;2023-12-20T00:06:24;0.10;66.00
38333;DHT22;25748;46.670;14.272;2023-12-20T00:08:50;0.10;66.00
38333;DHT22;25748;46.670;14.272;2023-12-20T00:11:15;0.10;66.10
38333;DHT22;25748;46.670;14.272;2023-12-20T00:13:41;0.10;66.20
38333;DHT22;25748;46.670;14.272;2023-12-20T00:16:07;0.10;66.10
38333;DHT22;25748;46.670;14.272;2023-12-20T00:18:32;0.00;66.10
38333;DHT22;25748;46.670;14.272;2023-12-20T00:20:58;0.00;66.20
38333;DHT22;25748;46.670;14.272;2023-12-20T00:23:23;0.00;65.90
38333;DHT22;25748;46.670;14.272;2023-12-20T00:25:49;0.00;66.00
38333;DHT22;25748;46.670;14.272;2023-12-20T00:28:15;0.00;66.10
38333;DHT22;25748;46.670;14.272;2023-12-20T00:30:40;-0.10;66.10
38333;DHT22;25748;46.670;14.272;2023-12-20T00:33:06;-0.10;66.10
38333;DHT22;25748;46.670;14.272;2023-12-20T00:35:32;-0.10;66.20
38333;DHT22;25748;46.670;14.272;2023-12-20T00:37:58;-0.20;66.20
38333;DHT22;25748;46.670;14.272;2023-12-20T00:40:24;-0.20;66.20
38333;DHT22;25748;46.670;14.272;2023-12-20T00:42:50;-0.20;66.20
38333;DHT22;25748;46.670;14.272;2023-12-20T00:45:15;-0.20;66.20
38333;DHT22;25748;46.670;14.272;2023-12-20T00:47:41;-0.20;66.30
38333;DHT22;25748;46.670;14.272;2023-12-20T00:50:08;-0.20;66.30
38333;DHT22;25748;46.670;14.272;2023-12-20T00:52:35;-0.20;66.40
38333;DHT22;25748;46.670;14.272;2023-12-20T00:55:01;-0.20;66.30
38333;DHT22;25748;46.670;14.272;2023-12-20T00:57:29;-0.20;66.30
38333;DHT22;25748;46.670;14.272;2023-12-20T00:59:54;-0.20;66.30
38333;DHT22;25748;46.670;14.272;2023-12-20T01:02:20;-0.20;66.30
38333;DHT22;25748;46.670;14.272;2023-12-20T01:04:46;-0.20;66.30
38333;DHT22;25748;46.670;14.272;2023-12-20T01:07:12;-0.30;66.30
38333;DHT22;25748;46.670;14.272;2023-12-20T01:09:37;-0.30;66.30
38333;DHT22;25748;46.670;14.272;2023-12-20T01:12:03;-0.30;66.40
38333;DHT22;25748;46.670;14.272;2023-12-20T01:14:29;-0.30;66.30
38333;DHT22;25748;46.670;14.272;2023-12-20T01:16:54;-0.30;66.20
38333;DHT22;25748;46.670;14.272;2023-12-20T01:19:20;-0.40;66.20
38333;DHT22;25748;46.670;14.272;2023-12-20T01:21:46;-0.40;66.30
38333;DHT22;25748;46.670;14.272;2023-12-20T01:24:12;-0.40;66.20
38333;DHT22;25748;46.670;14.272;2023-12-20T01:26:38;-0.40;66.30
38333;DHT22;25748;46.670;14.272;2023-12-20T01:29:03;-0.50;66.50
38333;DHT22;25748;46.670;14.272;2023-12-20T01:31:29;-0.40;66.70
38333;DHT22;25748;46.670;14.272;2023-12-20T01:33:55;-0.40;66.80
38333;DHT22;25748;46.670;14.272;2023-12-20T01:36:20;-0.40;66.90
38333;DHT22;25748;46.670;14.272;2023-12-20T01:38:46;-0.40;66.90
38333;DHT22;25748;46.670;14.272;2023-12-20T01:41:11;-0.40;67.00
38333;DHT22;25748;46.670;14.272;2023-12-20T01:43:37;-0.40;66.90
38333;DHT22;25748;46.670;14.272;2023-12-20T01:46:03;-0.40;67.00
38333;DHT22;25748;46.670;14.272;2023-12-20T01:48:29;-0.40;66.90
38333;DHT22;25748;46.670;14.272;2023-12-20T01:50:58;-0.50;66.80
38333;DHT22;25748;46.670;14.272;2023-12-20T01:53:25;-0.50;66.90
38333;DHT22;25748;46.670;14.272;2023-12-20T01:55:52;-0.50;66.80
38333;DHT22;25748;46.670;14.272;2023-12-20T01:58:20;-0.50;66.80
38333;DHT22;25748;46.670;14.272;2023-12-20T02:00:46;-0.50;66.80
38333;DHT22;25748;46.670;14.272;2023-12-20T02:03:12;-0.50;66.50
38333;DHT22;25748;46.670;14.272;2023-12-20T02:05:38;-0.50;66.50
38333;DHT22;25748;46.670;14.272;2023-12-20T02:08:04;-0.50;66.50
38333;DHT22;25748;46.670;14.272;2023-12-20T02:10:31;-0.60;66.50
38333;DHT22;25748;46.670;14.272;2023-12-20T02:12:57;-0.60;66.70
38333;DHT22;25748;46.670;14.272;2023-12-20T02:15:23;-0.60;66.70
38333;DHT22;25748;46.670;14.272;2023-12-20T02:17:50;-0.60;66.80
38333;DHT22;25748;46.670;14.272;2023-12-20T02:20:16;-0.60;66.70
38333;DHT22;25748;46.670;14.272;2023-12-20T02:22:42;-0.60;66.50
38333;DHT22;25748;46.670;14.272;2023-12-20T02:25:07;-0.60;66.60
38333;DHT22;25748;46.670;14.272;2023-12-20T02:27:34;-0.60;66.30
38333;DHT22;25748;46.670;14.272;2023-12-20T02:30:00;-0.60;66.70
38333;DHT22;25748;46.670;14.272;2023-12-20T02:32:26;-0.60;66.80
38333;DHT22;25748;46.670;14.272;2023-12-20T02:34:51;-0.60;66.80
38333;DHT22;25748;46.670;14.272;2023-12-20T02:37:17;-0.60;66.90
38333;DHT22;25748;46.670;14.272;2023-12-20T02:39:43;-0.60;67.20
38333;DHT22;25748;46.670;14.272;2023-12-20T02:42:08;-0.60;67.00
38333;DHT22;25748;46.670;14.272;2023-12-20T02:44:34;-0.60;67.00
38333;DHT22;25748;46.670;14.272;2023-12-20T02:46:59;-0.60;67.20
38333;DHT22;25748;46.670;14.272;2023-12-20T02:49:25;-0.60;67.20
38333;DHT22;25748;46.670;14.272;2023-12-20T02:51:51;-0.60;67.00
38333;DHT22;25748;46.670;14.272;2023-12-20T02:54:16;-0.60;67.00
38333;DHT22;25748;46.670;14.272;2023-12-20T02:56:42;-0.60;66.90
38333;DHT22;25748;46.670;14.272;2023-12-20T02:59:08;-0.60;66.80
38333;DHT22;25748;46.670;14.272;2023-12-20T03:01:42;-0.60;67.00
38333;DHT22;25748;46.670;14.272;2023-12-20T03:04:08;-0.60;67.10
38333;DHT22;25748;46.670;14.272;2023-12-20T03:06:33;-0.60;67.10
38333;DHT22;25748;46.670;14.272;2023-12-20T03:08:59;-0.60;67.30
38333;DHT22;25748;46.670;14.272;2023-12-20T03:11:28;-0.70;67.20
38333;DHT22;25748;46.670;14.272;2023-12-20T03:13:54;-0.70;67.20
38333;DHT22;25748;46.670;14.272;2023-12-20T03:16:20;-0.70;67.20
38333;DHT22;25748;46.670;14.272;2023-12-20T03:18:46;-0.70;67.20
38333;DHT22;25748;46.670;14.272;2023-12-20T03:21:11;-0.70;67.30
38333;DHT22;25748;46.670;14.272;2023-12-20T03:23:37;-0.70;67.30
38333;DHT22;25748;46.670;14.272;2023-12-20T03:26:03;-0.70;67.30
38333;DHT22;25748;46.670;14.272;2023-12-20T03:28:29;-0.70;67.30
38333;DHT22;25748;46.670;14.272;2023-12-20T03:30:55;-0.70;67.20
38333;DHT22;25748;46.670;14.272;2023-12-20T03:33:21;-0.70;67.30
38333;DHT22;25748;46.670;14.272;2023-12-20T03:35:47;-0.70;67.20
38333;DHT22;25748;46.670;14.272;2023-12-20T03:38:12;-0.80;67.00
38333;DHT22;25748;46.670;14.272;2023-12-20T03:40:38;-0.80;67.10
38333;DHT22;25748;46.670;14.272;2023-12-20T03:43:04;-0.80;67.00
38333;DHT22;25748;46.670;14.272;2023-12-20T03:45:30;-0.80;67.00
38333;DHT22;25748;46.670;14.272;2023-12-20T03:47:56;-0.80;66.90
38333;DHT22;25748;46.670;14.272;2023-12-20T03:50:26;-0.90;66.80
38333;DHT22;25748;46.670;14.272;2023-12-20T03:52:52;-0.90;66.80
38333;DHT22;25748;46.670;14.272;2023-12-20T03:55:18;-0.90;66.90
38333;DHT22;25748;46.670;14.272;2023-12-20T03:57:43;-0.90;66.80
38333;DHT22;25748;46.670;14.272;2023-12-20T04:00:09;-0.90;66.70
38333;DHT22;25748;46.670;14.272;2023-12-20T04:02:38;-0.90;66.40
38333;DHT22;25748;46.670;14.272;2023-12-20T04:05:05;-0.90;66.30
38333;DHT22;25748;46.670;14.272;2023-12-20T04:07:31;-0.90;66.20
38333;DHT22;25748;46.670;14.272;2023-12-20T04:09:57;-1.00;66.10
38333;DHT22;25748;46.670;14.272;2023-12-20T04:12:23;-0.90;66.30
38333;DHT22;25748;46.670;14.272;2023-12-20T04:14:49;-1.00;66.20
38333;DHT22;25748;46.670;14.272;2023-12-20T04:17:17;-1.00;66.20
38333;DHT22;25748;46.670;14.272;2023-12-20T04:19:43;-1.00;66.00
38333;DHT22;25748;46.670;14.272;2023-12-20T04:22:09;-1.00;66.00
38333;DHT22;25748;46.670;14.272;2023-12-20T04:24:35;-1.00;66.10
38333;DHT22;25748;46.670;14.272;2023-12-20T04:27:01;-1.00;66.20
38333;DHT22;25748;46.670;14.272;2023-12-20T04:29:27;-1.00;66.30
38333;DHT22;25748;46.670;14.272;2023-12-20T04:31:52;-1.00;66.30
38333;DHT22;25748;46.670;14.272;2023-12-20T04:34:18;-1.00;66.40
38333;DHT22;25748;46.670;14.272;2023-12-20T04:36:44;-0.90;66.60
38333;DHT22;25748;46.670;14.272;2023-12-20T04:39:12;-0.90;66.50
38333;DHT22;25748;46.670;14.272;2023-12-20T04:41:38;-0.90;66.20
38333;DHT22;25748;46.670;14.272;2023-12-20T04:44:04;-0.90;66.10
38333;DHT22;25748;46.670;14.272;2023-12-20T04:46:29;-0.90;66.20
38333;DHT22;25748;46.670;14.272;2023-12-20T04:48:55;-0.80;66.30
38333;DHT22;25748;46.670;14.272;2023-12-20T04:51:20;-0.80;66.30
38333;DHT22;25748;46.670;14.272;2023-12-20T04:53:46;-0.80;66.00
38333;DHT22;25748;46.670;14.272;2023-12-20T04:56:12;-0.90;65.00
38333;DHT22;25748;46.670;14.272;2023-12-20T04:58:39;-0.90;65.20
38333;DHT22;25748;46.670;14.272;2023-12-20T05:01:06;-0.90;65.40
38333;DHT22;25748;46.670;14.272;2023-12-20T05:03:32;-0.90;65.40
38333;DHT22;25748;46.670;14.272;2023-12-20T05:05:58;-0.90;65.50
38333;DHT22;25748;46.670;14.272;2023-12-20T05:08:24;-0.90;65.50
38333;DHT22;25748;46.670;14.272;2023-12-20T05:10:51;-0.90;65.60
38333;DHT22;25748;46.670;14.272;2023-12-20T05:13:17;-0.90;65.70
38333;DHT22;25748;46.670;14.272;2023-12-20T05:15:42;-0.90;65.80
38333;DHT22;25748;46.670;14.272;2023-12-20T05:18:08;-0.90;65.80
38333;DHT22;25748;46.670;14.272;2023-12-20T05:20:34;-0.90;65.90
38333;DHT22;25748;46.670;14.272;2023-12-20T05:22:59;-0.90;65.90
38333;DHT22;25748;46.670;14.272;2023-12-20T05:25:25;-0.80;65.70
38333;DHT22;25748;46.670;14.272;2023-12-20T05:27:50;-0.80;65.30
38333;DHT22;25748;46.670;14.272;2023-12-20T05:30:16;-0.90;65.00
38333;DHT22;25748;46.670;14.272;2023-12-20T05:32:42;-0.90;65.30
38333;DHT22;25748;46.670;14.272;2023-12-20T05:35:07;-0.90;65.50
38333;DHT22;25748;46.670;14.272;2023-12-20T05:37:33;-0.90;65.70
38333;DHT22;25748;46.670;14.272;2023-12-20T05:39:59;-0.90;65.80
38333;DHT22;25748;46.670;14.272;2023-12-20T05:42:24;-0.90;65.70
38333;DHT22;25748;46.670;14.272;2023-12-20T05:44:50;-1.00;64.70
38333;DHT22;25748;46.670;14.272;2023-12-20T05:47:15;-1.00;65.20
38333;DHT22;25748;46.670;14.272;2023-12-20T05:49:41;-1.00;65.50
38333;DHT22;25748;46.670;14.272;2023-12-20T05:52:07;-1.00;65.40
38333;DHT22;25748;46.670;14.272;2023-12-20T05:54:32;-1.00;65.60
38333;DHT22;25748;46.670;14.272;2023-12-20T05:56:59;-1.00;65.80
38333;DHT22;25748;46.670;14.272;2023-12-20T05:59:26;-1.00;65.10
38333;DHT22;25748;46.670;14.272;2023-12-20T06:01:51;-1.00;64.90
38333;DHT22;25748;46.670;14.272;2023-12-20T06:04:17;-1.00;65.00
38333;DHT22;25748;46.670;14.272;2023-12-20T06:06:43;-1.00;65.00
38333;DHT22;25748;46.670;14.272;2023-12-20T06:09:09;-1.00;65.20
38333;DHT22;25748;46.670;14.272;2023-12-20T06:11:35;-1.00;65.50
38333;DHT22;25748;46.670;14.272;2023-12-20T06:14:00;-1.00;65.30
38333;DHT22;25748;46.670;14.272;2023-12-20T06:16:26;-1.00;65.20
38333;DHT22;25748;46.670;14.272;2023-12-20T06:18:52;-1.00;65.10
38333;DHT22;25748;46.670;14.272;2023-12-20T06:21:18;-1.00;65.20
38333;DHT22;25748;46.670;14.272;2023-12-20T06:23:43;-1.00;65.50
38333;DHT22;25748;46.670;14.272;2023-12-20T06:26:09;-1.00;65.60
38333;DHT22;25748;46.670;14.272;2023-12-20T06:28:35;-1.00;65.90
38333;DHT22;25748;46.670;14.272;2023-12-20T06:31:00;-0.90;66.30
38333;DHT22;25748;46.670;14.272;2023-12-20T06:33:26;-0.90;66.40
38333;DHT22;25748;46.670;14.272;2023-12-20T06:35:52;-0.90;66.40
38333;DHT22;25748;46.670;14.272;2023-12-20T06:38:18;-0.80;66.90
38333;DHT22;25748;46.670;14.272;2023-12-20T06:40:44;-0.80;66.60
38333;DHT22;25748;46.670;14.272;2023-12-20T06:43:11;-0.80;66.70
38333;DHT22;25748;46.670;14.272;2023-12-20T06:45:37;-0.70;66.90
38333;DHT22;25748;46.670;14.272;2023-12-20T06:48:03;-0.70;66.60
38333;DHT22;25748;46.670;14.272;2023-12-20T06:50:29;-0.70;66.80
38333;DHT22;25748;46.670;14.272;2023-12-20T06:52:54;-0.70;66.80
38333;DHT22;25748;46.670;14.272;2023-12-20T06:55:20;-0.70;66.60
38333;DHT22;25748;46.670;14.272;2023-12-20T06:57:45;-0.60;66.80
38333;DHT22;25748;46.670;14.272;2023-12-20T07:00:11;-0.60;66.70
38333;DHT22;25748;46.670;14.272;2023-12-20T07:02:37;-0.60;67.10
38333;DHT22;25748;46.670;14.272;2023-12-20T07:05:04;-0.60;66.50
38333;DHT22;25748;46.670;14.272;2023-12-20T07:07:30;-0.70;66.30
38333;DHT22;25748;46.670;14.272;2023-12-20T07:09:55;-0.60;66.40
38333;DHT22;25748;46.670;14.272;2023-12-20T07:12:21;-0.60;66.40
38333;DHT22;25748;46.670;14.272;2023-12-20T07:14:47;-0.60;66.20
38333;DHT22;25748;46.670;14.272;2023-12-20T07:17:13;-0.60;66.20
38333;DHT22;25748;46.670;14.272;2023-12-20T07:19:41;-0.60;65.90
38333;DHT22;25748;46.670;14.272;2023-12-20T07:22:07;-0.60;65.80
38333;DHT22;25748;46.670;14.272;2023-12-20T07:24:33;-0.60;66.00
38333;DHT22;25748;46.670;14.272;2023-12-20T07:26:59;-0.70;65.70
38333;DHT22;25748;46.670;14.272;2023-12-20T07:29:25;-0.60;66.00
38333;DHT22;25748;46.670;14.272;2023-12-20T07:31:52;-0.60;66.00
38333;DHT22;25748;46.670;14.272;2023-12-20T07:34:19;-0.60;66.00
38333;DHT22;25748;46.670;14.272;2023-12-20T07:36:45;-0.60;66.10
38333;DHT22;25748;46.670;14.272;2023-12-20T07:39:11;-0.60;66.10
38333;DHT22;25748;46.670;14.272;2023-12-20T07:41:36;-0.50;66.10
38333;DHT22;25748;46.670;14.272;2023-12-20T07:44:04;-0.50;66.10
38333;DHT22;25748;46.670;14.272;2023-12-20T07:46:29;-0.50;66.10
38333;DHT22;25748;46.670;14.272;2023-12-20T07:48:55;-0.50;66.20
38333;DHT22;25748;46.670;14.272;2023-12-20T07:51:21;-0.40;66.20
38333;DHT22;25748;46.670;14.272;2023-12-20T07:53:46;-0.40;66.20
38333;DHT22;25748;46.670;14.272;2023-12-20T07:56:16;-0.40;66.20
38333;DHT22;25748;46.670;14.272;2023-12-20T07:58:42;-0.40;66.20
38333;DHT22;25748;46.670;14.272;2023-12-20T08:01:08;-0.30;66.30
38333;DHT22;25748;46.670;14.272;2023-12-20T08:03:34;-0.30;66.20
38333;DHT22;25748;46.670;14.272;2023-12-20T08:05:59;-0.30;66.10
38333;DHT22;25748;46.670;14.272;2023-12-20T08:08:26;-0.30;66.10
38333;DHT22;25748;46.670;14.272;2023-12-20T08:10:51;-0.30;65.80
38333;DHT22;25748;46.670;14.272;2023-12-20T08:13:17;-0.30;65.80
38333;DHT22;25748;46.670;14.272;2023-12-20T08:15:42;-0.30;66.00
38333;DHT22;25748;46.670;14.272;2023-12-20T08:18:08;-0.30;66.10
38333;DHT22;25748;46.670;14.272;2023-12-20T08:20:34;-0.30;66.10
38333;DHT22;25748;46.670;14.272;2023-12-20T08:22:59;-0.30;66.10
38333;DHT22;25748;46.670;14.272;2023-12-20T08:25:26;-0.20;66.30
38333;DHT22;25748;46.670;14.272;2023-12-20T08:27:52;-0.20;66.40
38333;DHT22;25748;46.670;14.272;2023-12-20T08:30:18;-0.10;66.50
38333;DHT22;25748;46.670;14.272;2023-12-20T08:32:49;-0.10;66.70
38333;DHT22;25748;46.670;14.272;2023-12-20T08:35:15;0.10;66.90
38333;DHT22;25748;46.670;14.272;2023-12-20T08:37:41;0.10;67.00
38333;DHT22;25748;46.670;14.272;2023-12-20T08:40:07;0.20;67.00
38333;DHT22;25748;46.670;14.272;2023-12-20T08:42:32;0.30;67.10
38333;DHT22;25748;46.670;14.272;2023-12-20T08:44:58;0.40;67.20
38333;DHT22;25748;46.670;14.272;2023-12-20T08:47:24;0.40;66.80
38333;DHT22;25748;46.670;14.272;2023-12-20T08:49:50;0.40;66.50
38333;DHT22;25748;46.670;14.272;2023-12-20T08:52:15;0.40;66.50
38333;DHT22;25748;46.670;14.272;2023-12-20T08:54:41;0.50;66.60
38333;DHT22;25748;46.670;14.272;2023-12-20T08:57:07;0.50;66.60
38333;DHT22;25748;46.670;14.272;2023-12-20T08:59:33;0.50;66.60
38333;DHT22;25748;46.670;14.272;2023-12-20T09:01:58;0.60;66.70
38333;DHT22;25748;46.670;14.272;2023-12-20T09:04:25;0.60;66.60
38333;DHT22;25748;46.670;14.272;2023-12-20T09:06:50;0.60;66.60
38333;DHT22;25748;46.670;14.272;2023-12-20T09:09:16;0.70;66.60
38333;DHT22;25748;46.670;14.272;2023-12-20T09:11:42;0.80;66.90
38333;DHT22;25748;46.670;14.272;2023-12-20T09:14:08;0.80;66.70
38333;DHT22;25748;46.670;14.272;2023-12-20T09:16:33;0.90;66.80
38333;DHT22;25748;46.670;14.272;2023-12-20T09:18:59;1.00;66.60
38333;DHT22;25748;46.670;14.272;2023-12-20T09:21:25;1.00;66.30
38333;DHT22;25748;46.670;14.272;2023-12-20T09:23:51;1.00;66.60
38333;DHT22;25748;46.670;14.272;2023-12-20T09:26:16;1.10;66.60
38333;DHT22;25748;46.670;14.272;2023-12-20T09:28:42;1.10;66.50
38333;DHT22;25748;46.670;14.272;2023-12-20T09:31:07;1.20;66.60
38333;DHT22;25748;46.670;14.272;2023-12-20T09:33:33;1.20;66.40
38333;DHT22;25748;46.670;14.272;2023-12-20T09:35:59;1.20;66.20
38333;DHT22;25748;46.670;14.272;2023-12-20T09:38:25;1.20;66.40
38333;DHT22;25748;46.670;14.272;2023-12-20T09:40:50;1.30;66.50
38333;DHT22;25748;46.670;14.272;2023-12-20T09:43:19;1.30;66.40
38333;DHT22;25748;46.670;14.272;2023-12-20T09:45:47;1.40;66.50
38333;DHT22;25748;46.670;14.272;2023-12-20T09:48:13;1.40;66.50
38333;DHT22;25748;46.670;14.272;2023-12-20T09:50:41;1.50;66.50
38333;DHT22;25748;46.670;14.272;2023-12-20T09:53:14;1.50;66.50
38333;DHT22;25748;46.670;14.272;2023-12-20T09:55:41;1.50;65.90
38333;DHT22;25748;46.670;14.272;2023-12-20T09:58:07;1.50;65.60
38333;DHT22;25748;46.670;14.272;2023-12-20T10:00:34;1.50;65.90
38333;DHT22;25748;46.670;14.272;2023-12-20T10:03:01;1.50;66.10
38333;DHT22;25748;46.670;14.272;2023-12-20T10:05:31;1.50;65.50
38333;DHT22;25748;46.670;14.272;2023-12-20T10:07:58;1.50;65.70
38333;DHT22;25748;46.670;14.272;2023-12-20T10:10:24;1.50;65.60
38333;DHT22;25748;46.670;14.272;2023-12-20T10:13:08;1.50;65.70
38333;DHT22;25748;46.670;14.272;2023-12-20T10:15:34;1.50;65.90
38333;DHT22;25748;46.670;14.272;2023-12-20T10:18:01;1.60;65.90
38333;DHT22;25748;46.670;14.272;2023-12-20T10:20:27;1.60;65.50
38333;DHT22;25748;46.670;14.272;2023-12-20T10:22:57;1.60;65.90
38333;DHT22;25748;46.670;14.272;2023-12-20T10:25:24;1.60;65.40
38333;DHT22;25748;46.670;14.272;2023-12-20T10:30:35;1.60;65.60
38333;DHT22;25748;46.670;14.272;2023-12-20T10:33:01;1.60;65.30
38333;DHT22;25748;46.670;14.272;2023-12-20T10:35:27;1.60;65.10
38333;DHT22;25748;46.670;14.272;2023-12-20T10:37:56;1.60;65.20
38333;DHT22;25748;46.670;14.272;2023-12-20T10:40:27;1.60;65.20
38333;DHT22;25748;46.670;14.272;2023-12-20T10:42:53;1.50;64.70
38333;DHT22;25748;46.670;14.272;2023-12-20T10:45:19;1.50;64.90
38333;DHT22;25748;46.670;14.272;2023-12-20T10:47:46;1.40;64.70
38333;DHT22;25748;46.670;14.272;2023-12-20T10:50:12;1.40;64.80
38333;DHT22;25748;46.670;14.272;2023-12-20T10:52:40;1.40;65.40
38333;DHT22;25748;46.670;14.272;2023-12-20T10:55:07;1.40;65.40
38333;DHT22;25748;46.670;14.272;2023-12-20T10:57:33;1.40;65.00
38333;DHT22;25748;46.670;14.272;2023-12-20T11:00:02;1.50;65.10
38333;DHT22;25748;46.670;14.272;2023-12-20T11:02:32;1.50;65.10
38333;DHT22;25748;46.670;14.272;2023-12-20T11:08:17;1.50;64.70
38333;DHT22;25748;46.670;14.272;2023-12-20T11:11:11;1.50;64.80
38333;DHT22;25748;46.670;14.272;2023-12-20T11:13:48;1.50;65.20
38333;DHT22;25748;46.670;14.272;2023-12-20T11:16:17;1.50;65.10
38333;DHT22;25748;46.670;14.272;2023-12-20T11:18:45;1.50;65.20
38333;DHT22;25748;46.670;14.272;2023-12-20T11:21:11;1.50;65.00
38333;DHT22;25748;46.670;14.272;2023-12-20T11:23:36;1.50;65.20
38333;DHT22;25748;46.670;14.272;2023-12-20T11:26:03;1.50;65.50
38333;DHT22;25748;46.670;14.272;2023-12-20T11:28:29;1.50;65.00
38333;DHT22;25748;46.670;14.272;2023-12-20T11:30:58;1.60;65.50
38333;DHT22;25748;46.670;14.272;2023-12-20T11:33:31;1.60;65.40
38333;DHT22;25748;46.670;14.272;2023-12-20T11:35:58;1.60;65.40
38333;DHT22;25748;46.670;14.272;2023-12-20T11:38:25;1.70;65.30
38333;DHT22;25748;46.670;14.272;2023-12-20T11:40:53;1.60;64.60
38333;DHT22;25748;46.670;14.272;2023-12-20T11:43:39;1.60;64.90
38333;DHT22;25748;46.670;14.272;2023-12-20T11:46:08;1.70;65.10
38333;DHT22;25748;46.670;14.272;2023-12-20T11:48:36;1.80;64.80
38333;DHT22;25748;46.670;14.272;2023-12-20T11:51:02;1.70;64.40
38333;DHT22;25748;46.670;14.272;2023-12-20T11:53:29;1.80;64.70
38333;DHT22;25748;46.670;14.272;2023-12-20T11:55:56;1.80;64.50
38333;DHT22;25748;46.670;14.272;2023-12-20T11:58:22;1.80;64.50
38333;DHT22;25748;46.670;14.272;2023-12-20T12:00:49;1.90;64.50
38333;DHT22;25748;46.670;14.272;2023-12-20T12:03:15;1.90;64.60
38333;DHT22;25748;46.670;14.272;2023-12-20T12:05:41;2.00;64.40
38333;DHT22;25748;46.670;14.272;2023-12-20T12:08:07;1.90;63.70
38333;DHT22;25748;46.670;14.272;2023-12-20T12:10:33;1.80;63.70
38333;DHT22;25748;46.670;14.272;2023-12-20T12:12:59;1.90;64.00
38333;DHT22;25748;46.670;14.272;2023-12-20T12:15:25;1.90;63.70
38333;DHT22;25748;46.670;14.272;2023-12-20T12:17:54;1.90;63.90
38333;DHT22;25748;46.670;14.272;2023-12-20T12:20:21;1.90;63.60
38333;DHT22;25748;46.670;14.272;2023-12-20T12:23:01;2.00;64.00
38333;DHT22;25748;46.670;14.272;2023-12-20T12:25:29;1.90;63.50
38333;DHT22;25748;46.670;14.272;2023-12-20T12:27:56;2.00;63.90
38333;DHT22;25748;46.670;14.272;2023-12-20T12:30:22;1.90;63.50
38333;DHT22;25748;46.670;14.272;2023-12-20T12:32:47;1.90;63.80
38333;DHT22;25748;46.670;14.272;2023-12-20T12:35:14;1.90;64.00
38333;DHT22;25748;46.670;14.272;2023-12-20T12:37:41;1.90;64.30
38333;DHT22;25748;46.670;14.272;2023-12-20T12:40:11;2.00;64.60
38333;DHT22;25748;46.670;14.272;2023-12-20T12:42:37;2.00;64.50
38333;DHT22;25748;46.670;14.272;2023-12-20T12:45:05;2.10;64.60
38333;DHT22;25748;46.670;14.272;2023-12-20T12:47:31;2.20;64.70
38333;DHT22;25748;46.670;14.272;2023-12-20T12:49:57;2.20;64.60
38333;DHT22;25748;46.670;14.272;2023-12-20T12:52:22;2.20;64.50
38333;DHT22;25748;46.670;14.272;2023-12-20T12:54:48;2.20;64.00
38333;DHT22;25748;46.670;14.272;2023-12-20T12:57:15;2.30;64.50
38333;DHT22;25748;46.670;14.272;2023-12-20T12:59:45;2.30;64.00
38333;DHT22;25748;46.670;14.272;2023-12-20T13:02:14;2.40;63.40
38333;DHT22;25748;46.670;14.272;2023-12-20T13:04:40;2.40;63.50
38333;DHT22;25748;46.670;14.272;2023-12-20T13:07:07;2.40;63.50
38333;DHT22;25748;46.670;14.272;2023-12-20T13:09:33;2.40;63.30
38333;DHT22;25748;46.670;14.272;2023-12-20T13:11:58;2.40;63.50
38333;DHT22;25748;46.670;14.272;2023-12-20T13:14:24;2.50;63.80
38333;DHT22;25748;46.670;14.272;2023-12-20T13:16:50;2.50;64.10
38333;DHT22;25748;46.670;14.272;2023-12-20T13:19:16;2.50;64.00
38333;DHT22;25748;46.670;14.272;2023-12-20T13:21:41;2.50;63.90
38333;DHT22;25748;46.670;14.272;2023-12-20T13:24:07;2.50;63.20
38333;DHT22;25748;46.670;14.272;2023-12-20T13:26:32;2.50;63.80
38333;DHT22;25748;46.670;14.272;2023-12-20T13:28:58;2.50;63.80
38333;DHT22;25748;46.670;14.272;2023-12-20T13:31:24;2.50;63.90
38333;DHT22;25748;46.670;14.272;2023-12-20T13:33:50;2.50;63.90
38333;DHT22;25748;46.670;14.272;2023-12-20T13:36:17;2.50;63.60
38333;DHT22;25748;46.670;14.272;2023-12-20T13:38:43;2.50;63.70
38333;DHT22;25748;46.670;14.272;2023-12-20T13:41:09;2.50;63.80
38333;DHT22;25748;46.670;14.272;2023-12-20T13:43:34;2.50;63.90
38333;DHT22;25748;46.670;14.272;2023-12-20T13:46:00;2.50;63.60
38333;DHT22;25748;46.670;14.272;2023-12-20T13:48:26;2.40;63.90
38333;DHT22;25748;46.670;14.272;2023-12-20T13:50:53;2.50;64.00
38333;DHT22;25748;46.670;14.272;2023-12-20T13:53:20;2.50;64.10
38333;DHT22;25748;46.670;14.272;2023-12-20T13:55:45;2.50;64.10
38333;DHT22;25748;46.670;14.272;2023-12-20T13:58:12;2.50;64.10
38333;DHT22;25748;46.670;14.272;2023-12-20T14:00:38;2.50;64.00
38333;DHT22;25748;46.670;14.272;2023-12-20T14:03:04;2.50;63.90
38333;DHT22;25748;46.670;14.272;2023-12-20T14:05:30;2.40;63.90
38333;DHT22;25748;46.670;14.272;2023-12-20T14:07:56;2.40;64.00
38333;DHT22;25748;46.670;14.272;2023-12-20T14:10:23;2.50;64.20
38333;DHT22;25748;46.670;14.272;2023-12-20T14:12:49;2.50;64.10
38333;DHT22;25748;46.670;14.272;2023-12-20T14:15:14;2.50;64.20
38333;DHT22;25748;46.670;14.272;2023-12-20T14:17:41;2.50;64.20
38333;DHT22;25748;46.670;14.272;2023-12-20T14:20:10;2.50;64.10
38333;DHT22;25748;46.670;14.272;2023-12-20T14:22:38;2.50;64.10
38333;DHT22;25748;46.670;14.272;2023-12-20T14:25:04;2.40;64.20
38333;DHT22;25748;46.670;14.272;2023-12-20T14:27:31;2.50;64.30
38333;DHT22;25748;46.670;14.272;2023-12-20T14:29:57;2.50;64.30
38333;DHT22;25748;46.670;14.272;2023-12-20T14:32:23;2.40;64.10
38333;DHT22;25748;46.670;14.272;2023-12-20T14:34:49;2.40;64.00
38333;DHT22;25748;46.670;14.272;2023-12-20T14:37:15;2.40;64.20
38333;DHT22;25748;46.670;14.272;2023-12-20T14:39:42;2.30;64.20
38333;DHT22;25748;46.670;14.272;2023-12-20T14:42:08;2.30;64.70
38333;DHT22;25748;46.670;14.272;2023-12-20T14:44:40;2.40;64.40
38333;DHT22;25748;46.670;14.272;2023-12-20T14:47:06;2.30;64.40
38333;DHT22;25748;46.670;14.272;2023-12-20T14:49:32;2.30;64.60
38333;DHT22;25748;46.670;14.272;2023-12-20T14:51:58;2.30;64.30
38333;DHT22;25748;46.670;14.272;2023-12-20T14:54:25;2.20;64.50
38333;DHT22;25748;46.670;14.272;2023-12-20T14:56:54;2.20;64.40
38333;DHT22;25748;46.670;14.272;2023-12-20T14:59:19;2.20;64.60
38333;DHT22;25748;46.670;14.272;2023-12-20T15:01:46;2.20;64.60
38333;DHT22;25748;46.670;14.272;2023-12-20T15:04:12;2.10;64.50
38333;DHT22;25748;46.670;14.272;2023-12-20T15:06:38;2.10;64.70
38333;DHT22;25748;46.670;14.272;2023-12-20T15:09:03;2.10;64.90
38333;DHT22;25748;46.670;14.272;2023-12-20T15:11:30;2.10;65.00
38333;DHT22;25748;46.670;14.272;2023-12-20T15:13:56;2.10;65.10
38333;DHT22;25748;46.670;14.272;2023-12-20T15:16:24;2.00;64.90
38333;DHT22;25748;46.670;14.272;2023-12-20T15:18:51;2.00;65.00
38333;DHT22;25748;46.670;14.272;2023-12-20T15:21:16;1.90;64.90
38333;DHT22;25748;46.670;14.272;2023-12-20T15:23:43;1.90;65.00